Nearby METAR Reports

 

KSJC - San Jose, California, USA
Distance from station: NØ 14km
Oppdatert: 19/04/2021 11:53
Klart
Klart
 Vind fra VSV
Vind: VSV 6 km/h
Temperatur: 12°C
Duggpunkt: 7°C
Fuktighet: 72%
Barometer: 1019.3 hPa
Clouds: Klart
Visibility: 16 km
2021/04/19 09:53 KSJC 190953Z 24003KT 10SM CLR 12/07 A3010 RMK AO2 SLP193 T01170072 $
KNUQ - Moffett Nas/Mtn, California, USA
Distance from station: N 14km
Oppdatert: 14/04/2021 00:40
NOT Current

 
2021/04/13 22:40 KNUQ 132240Z AUTO RMK AO2 PNO PWINO TSNO
 
KPAO - Palo Alto, California, USA
Distance from station: NNV 23km
Oppdatert: 19/04/2021 05:47
NOT Current
Klart
Klart
 Vind fra NNV
Vind: NNV 13 km/h
Temperatur: 13°C
Duggpunkt: 9°C
Fuktighet: 77%
Barometer: 1019.3 hPa
Clouds: Klart
Visibility: 16 km
2021/04/19 03:47 KPAO 190347Z 33007KT 10SM SKC 13/09 A3010 RMK LAST
KRHV - San Jose/Reid, California, USA
Distance from station: ØNØ 19km
Oppdatert: 19/04/2021 06:55
NOT Current
Klart
Klart
 Vind fra NV
Vind: NV 6 km/h
Temperatur: 16°C
Duggpunkt: 8°C
Fuktighet: 59%
Barometer: 1019.6 hPa
Clouds: Klart
Visibility: 16 km
2021/04/19 04:55 KRHV 190455Z 31003KT 10SM SKC 16/08 A3011
 
KOAK - Oakland, California, USA
Distance from station: NNV 50km
Oppdatert: 19/04/2021 11:53
Few Clouds
Few Clouds
 Vind fra V
Vind: V 22 km/h
Temperatur: 11°C
Duggpunkt: 8°C
Fuktighet: 82%
Barometer: 1020 hPa
Clouds: Few Clouds
Visibility: 16 km
Cloud details: Few Clouds 213 m
2021/04/19 09:53 KOAK 190953Z 27012KT 10SM FEW007 11/08 A3012 RMK AO2 SLP199 T01060078
KSQL - San Carlos Airpo, California, USA
Distance from station: NV 34km
Oppdatert: 19/04/2021 11:55
Klart
Klart
 Vind fra VNV
Vind: VNV 7 km/h
Temperatur: 11°C
Duggpunkt: 7°C
Fuktighet: 77%
Barometer: 1020 hPa
Clouds: Klart
Visibility: 16 km
2021/04/19 09:55 KSQL 190955Z AUTO 30004KT 10SM CLR 11/07 A3012 RMK AO2
 
KSFO - San Francisco, California, USA
Distance from station: NV 49km
Oppdatert: 19/04/2021 11:56
Few Clouds
Few Clouds
 Vind fra VNV
Vind: VNV 20 km/h
Temperatur: 11°C
Duggpunkt: 8°C
Fuktighet: 82%
Barometer: 1019.6 hPa
Clouds: Few Clouds
Visibility: 16 km
Cloud details: Few Clouds 244 m
2021/04/19 09:56 KSFO 190956Z 29011KT 10SM FEW008 11/08 A3011 RMK AO2 SLP197 T01060078 $
KE16 - San Martin, California, USA
Distance from station: ØSØ 43km
Oppdatert: 19/04/2021 11:35
Klart
Klart
 Vind fra calm
Vind: Stille
Temperatur: 9°C
Duggpunkt: 5°C
Fuktighet: 76%
Barometer: 1020.3 hPa
Clouds: Klart
Visibility: 16 km
2021/04/19 09:35 KE16 190935Z AUTO 00000KT 10SM CLR 09/05 A3013 RMK AO2
 
KWVI - Watsonville, California, USA
Distance from station: SSØ 44km
Oppdatert: 19/04/2021 11:53
Tåke, Overskyet
Tåke, Overskyet
 Vind fra Ø
Vind: Ø 6 km/h
Temperatur: 9°C
Duggpunkt: 8°C
Fuktighet: 94%
Barometer: 1020.3 hPa
Oversikt: Tåke
Clouds: Overskyet
Visibility: 0.8 km
Cloud details: Overskyet 61 m
2021/04/19 09:53 KWVI 190953Z AUTO 08003KT 1/2SM FG VV002 09/08 A3013 RMK AO2 SLP203 T00890083
KHAF - Half Moon Bay, California, USA
Distance from station: VNV 50km
Oppdatert: 19/04/2021 11:55
Mist, Overskyet
Mist, Overskyet
 Vind fra NNV
Vind: NNV 11 km/h
Temperatur: 9°C
Wind Chill: 7°C
Duggpunkt: 8°C
Fuktighet: 94%
Barometer: 1020.7 hPa
Oversikt: Mist
Clouds: Overskyet
Visibility: 8 km
Cloud details: Overskyet 244 m
2021/04/19 09:55 KHAF 190955Z AUTO 33006KT 5SM BR OVC008 09/08 A3014 RMK AO2
 
KHWD - Hayward, California, USA
Distance from station: N 44km
Oppdatert: 19/04/2021 11:54
Klart
Klart
 Vind fra N
Vind: N 7 km/h
Temperatur: 10°C
Wind Chill: 9°C
Duggpunkt: 7°C
Fuktighet: 82%
Barometer: 1019.6 hPa
Clouds: Klart
Visibility: 16 km
2021/04/19 09:54 KHWD 190954Z AUTO 36004KT 10SM CLR 10/07 A3011 RMK AO2 SLP204 T01000072
KLVK - Livermore, California, USA
Distance from station: NNØ 51km
Oppdatert: 19/04/2021 11:53
Klart
Klart
 Vind fra V
Vind: V 11 km/h
Temperatur: 11°C
Duggpunkt: 6°C
Fuktighet: 72%
Barometer: 1018.6 hPa
Clouds: Klart
Visibility: 16 km
2021/04/19 09:53 KLVK 190953Z AUTO 28006KT 10SM CLR 11/06 A3008 RMK AO2 SLP181 T01110061